createdAt,value
2023-05-20T06:32:30.578Z,13.19
2023-05-20T06:34:58.872Z,13.20
2023-05-20T06:37:26.199Z,13.24
2023-05-20T06:39:54.146Z,13.26
2023-05-20T06:42:22.308Z,13.41
2023-05-20T06:45:04.153Z,13.23
2023-05-20T06:47:42.912Z,13.20
2023-05-20T06:50:11.564Z,13.09
2023-05-20T06:52:39.145Z,13.09
2023-05-20T06:55:07.618Z,13.28
2023-05-20T06:57:36.094Z,13.32
2023-05-20T07:00:06.011Z,13.28
2023-05-20T07:02:37.967Z,13.37
2023-05-20T07:05:06.570Z,13.17
2023-05-20T07:07:34.727Z,13.24
2023-05-20T07:10:02.437Z,13.46
2023-05-20T07:12:29.854Z,13.13
2023-05-20T07:14:57.365Z,13.23
2023-05-20T07:17:25.826Z,13.34
2023-05-20T07:19:53.896Z,13.12
2023-05-20T07:22:21.344Z,12.97
2023-05-20T07:24:56.634Z,12.99
2023-05-20T07:27:24.154Z,13.27
2023-05-20T07:29:51.900Z,13.50
2023-05-20T07:32:19.326Z,13.78
2023-05-20T07:34:46.980Z,13.92
2023-05-20T07:37:16.340Z,13.46
2023-05-20T07:39:44.116Z,13.73
2023-05-20T07:42:11.413Z,14.02
2023-05-20T07:44:41.997Z,13.94
2023-05-20T07:47:09.550Z,13.74
2023-05-20T07:49:37.044Z,13.81
2023-05-20T07:52:05.034Z,14.08
2023-05-20T07:54:32.415Z,14.35
2023-05-20T07:57:01.114Z,14.52
2023-05-20T07:59:29.811Z,14.34
2023-05-20T08:01:57.286Z,14.34
2023-05-20T08:06:56.353Z,14.73
2023-05-20T08:09:37.644Z,14.43
2023-05-20T08:12:05.930Z,14.22
2023-05-20T08:14:33.220Z,13.50
2023-05-20T08:17:00.664Z,13.45
2023-05-20T08:19:28.410Z,13.78
2023-05-20T08:21:55.944Z,14.34
2023-05-20T08:24:24.004Z,14.50
2023-05-20T08:26:52.065Z,14.64
2023-05-20T08:29:20.873Z,15.04
2023-05-20T08:31:48.282Z,15.24
2023-05-20T08:34:16.815Z,15.53
2023-05-20T08:36:45.396Z,15.60
2023-05-20T08:39:12.954Z,15.45
2023-05-20T08:41:40.288Z,15.34
2023-05-20T08:44:11.160Z,15.50
2023-05-20T08:46:39.525Z,15.30
2023-05-20T08:49:07.897Z,15.37
2023-05-20T08:51:37.673Z,15.69
2023-05-20T08:54:05.149Z,15.97
2023-05-20T08:56:33.886Z,16.15
2023-05-20T08:59:01.411Z,16.51
2023-05-20T09:01:29.249Z,16.44
2023-05-20T09:03:56.869Z,16.68
2023-05-20T09:06:24.268Z,16.45
2023-05-20T09:08:52.901Z,16.79
2023-05-20T09:11:22.356Z,17.21
2023-05-20T09:13:51.400Z,17.20
2023-05-20T09:16:18.949Z,17.33
2023-05-20T09:18:47.170Z,17.56
2023-05-20T09:21:14.434Z,17.93
2023-05-20T09:23:49.340Z,18.29
2023-05-20T09:26:18.641Z,18.96
2023-05-20T09:28:46.645Z,19.50
2023-05-20T09:31:17.247Z,19.75
2023-05-20T09:33:44.924Z,19.68
2023-05-20T09:36:14.642Z,20.77
2023-05-20T09:38:45.696Z,20.82
2023-05-20T09:41:15.485Z,21.47
2023-05-20T09:43:43.177Z,22.04
2023-05-20T09:46:11.170Z,21.78
2023-05-20T09:48:39.981Z,21.80
2023-05-20T09:51:08.182Z,22.31
2023-05-20T09:53:36.108Z,22.97
2023-05-20T09:56:03.991Z,22.81
2023-05-20T09:58:33.836Z,23.31
2023-05-20T10:01:01.523Z,26.17
2023-05-20T10:03:29.033Z,25.81
2023-05-20T10:06:10.556Z,26.86
2023-05-20T10:09:10.163Z,27.19
2023-05-20T10:12:22.110Z,27.85
2023-05-20T10:15:28.167Z,27.87
2023-05-20T10:18:49.273Z,27.87
2023-05-20T10:21:18.605Z,26.39
2023-05-20T10:23:46.655Z,26.15
2023-05-20T10:26:14.365Z,25.59
2023-05-20T10:28:42.308Z,26.03
2023-05-20T10:31:23.577Z,25.63
2023-05-20T10:33:54.290Z,26.32
2023-05-20T10:36:32.083Z,25.59
2023-05-20T10:39:00.764Z,24.83
2023-05-20T10:41:29.577Z,25.77
2023-05-20T10:44:07.080Z,26.29
2023-05-20T10:46:51.501Z,26.09
2023-05-20T10:49:27.282Z,26.10
2023-05-20T10:51:56.024Z,25.64
2023-05-20T10:54:23.551Z,26.16
2023-05-20T10:56:55.698Z,26.79
2023-05-20T10:59:23.376Z,25.53
2023-05-20T11:01:51.197Z,25.99
2023-05-20T11:04:19.946Z,26.45
2023-05-20T11:06:54.334Z,26.19
2023-05-20T11:09:22.701Z,26.31
2023-05-20T11:11:52.580Z,26.04
2023-05-20T11:14:20.294Z,25.47
2023-05-20T11:16:52.198Z,25.52
2023-05-20T11:19:20.281Z,25.05
2023-05-20T11:21:48.757Z,25.15
2023-05-20T11:24:26.494Z,24.87
2023-05-20T11:26:58.164Z,24.73
2023-05-20T11:29:27.191Z,24.66
2023-05-20T11:31:55.076Z,24.79
2023-05-20T11:34:25.921Z,24.50
2023-05-20T11:36:58.876Z,23.27
2023-05-20T11:39:30.307Z,23.67
2023-05-20T11:41:59.163Z,23.50
2023-05-20T11:44:26.751Z,23.17
2023-05-20T11:47:02.077Z,23.59
2023-05-20T11:49:30.969Z,24.53
2023-05-20T11:51:58.860Z,24.72
2023-05-20T11:54:26.695Z,24.43
2023-05-20T11:56:56.238Z,23.54
2023-05-20T11:59:25.081Z,23.67
2023-05-20T12:01:52.830Z,23.80
2023-05-20T12:04:20.552Z,23.88
2023-05-20T12:06:48.145Z,24.42
2023-05-20T12:09:15.575Z,24.80
2023-05-20T12:11:44.625Z,24.35
2023-05-20T12:14:12.169Z,23.77
2023-05-20T12:16:39.626Z,24.19
2023-05-20T12:19:08.787Z,24.75
2023-05-20T12:21:36.375Z,23.76
2023-05-20T12:24:06.133Z,23.59
2023-05-20T12:26:35.243Z,24.42
2023-05-20T12:29:02.620Z,24.87
2023-05-20T12:31:31.642Z,24.27
2023-05-20T12:34:00.420Z,23.58
2023-05-20T12:36:27.908Z,23.29
2023-05-20T12:38:55.211Z,23.42
2023-05-20T12:41:22.709Z,23.45
2023-05-20T12:43:50.069Z,23.43
2023-05-20T12:46:18.874Z,23.17
2023-05-20T12:48:46.408Z,23.62
2023-05-20T12:51:13.739Z,22.86
2023-05-20T12:53:41.016Z,22.68
2023-05-20T12:56:08.616Z,21.94
2023-05-20T12:58:35.871Z,22.02
2023-05-20T13:01:03.439Z,21.67
2023-05-20T13:03:30.816Z,21.42
2023-05-20T13:05:59.445Z,21.45
2023-05-20T13:08:28.567Z,22.12
2023-05-20T13:10:56.468Z,22.85
2023-05-20T13:13:24.996Z,22.58
2023-05-20T13:15:52.441Z,22.60
2023-05-20T13:18:20.121Z,23.28
2023-05-20T13:20:47.464Z,22.91
2023-05-20T13:23:14.906Z,23.59
2023-05-20T13:25:43.023Z,23.54
2023-05-20T13:28:10.793Z,23.22
2023-05-20T13:30:38.430Z,23.49
2023-05-20T13:33:05.926Z,23.50
2023-05-20T13:35:34.116Z,22.89
2023-05-20T13:38:01.535Z,22.00
2023-05-20T13:40:28.949Z,21.83
2023-05-20T13:42:56.713Z,21.60
2023-05-20T13:45:24.023Z,21.20
2023-05-20T13:47:51.552Z,21.05
2023-05-20T13:50:19.840Z,21.07
2023-05-20T13:52:47.122Z,21.84
2023-05-20T13:55:14.610Z,21.69
2023-05-20T13:57:42.645Z,21.94
2023-05-20T14:00:10.630Z,22.03
2023-05-20T14:02:38.617Z,21.88
2023-05-20T14:05:07.709Z,22.02
2023-05-20T14:07:35.198Z,21.66
2023-05-20T14:10:02.724Z,22.16
2023-05-20T14:12:30.173Z,22.57
2023-05-20T14:14:57.847Z,22.78
2023-05-20T14:17:25.958Z,22.96
2023-05-20T14:19:53.316Z,22.71
2023-05-20T14:22:20.622Z,22.58
2023-05-20T14:24:47.865Z,22.81
2023-05-20T14:27:15.296Z,22.77
2023-05-20T14:29:42.659Z,22.78
2023-05-20T14:32:11.604Z,22.33
2023-05-20T14:34:39.125Z,22.29
2023-05-20T14:37:09.937Z,22.54
2023-05-20T14:39:37.461Z,22.26
2023-05-20T14:42:05.451Z,22.44
2023-05-20T14:44:32.805Z,22.71
2023-05-20T14:47:00.504Z,22.77
2023-05-20T14:49:27.853Z,22.87
2023-05-20T14:51:55.216Z,22.84
2023-05-20T14:54:25.204Z,22.68
2023-05-20T14:56:52.627Z,23.02
2023-05-20T14:59:19.991Z,22.82
2023-05-20T15:01:47.210Z,22.80
2023-05-20T15:04:14.607Z,23.02
2023-05-20T15:06:42.191Z,22.74
2023-05-20T15:09:10.269Z,22.89
2023-05-20T15:11:37.639Z,22.72
2023-05-20T15:14:05.036Z,22.64
2023-05-20T15:16:32.526Z,22.73
2023-05-20T15:19:00.046Z,22.60
2023-05-20T15:21:27.363Z,22.52
2023-05-20T15:23:54.767Z,22.53
2023-05-20T15:26:22.062Z,22.51
2023-05-20T15:28:49.456Z,22.39
2023-05-20T15:31:17.004Z,22.52
2023-05-20T15:33:44.420Z,22.67
2023-05-20T15:36:11.854Z,22.65
2023-05-20T15:38:39.499Z,22.85
2023-05-20T15:41:06.813Z,22.95
2023-05-20T15:43:34.069Z,22.91
2023-05-20T15:46:02.305Z,22.64
2023-05-20T15:48:29.805Z,22.76
2023-05-20T15:50:57.106Z,22.83
2023-05-20T15:53:24.480Z,22.79
2023-05-20T15:55:52.532Z,22.76
2023-05-20T15:58:19.887Z,22.68
2023-05-20T16:00:47.742Z,22.61
2023-05-20T16:03:15.244Z,22.78
2023-05-20T16:05:42.836Z,22.62
2023-05-20T16:08:10.208Z,22.40
2023-05-20T16:10:37.571Z,22.13
2023-05-20T16:13:04.978Z,22.11
2023-05-20T16:15:35.686Z,21.87
2023-05-20T16:18:03.596Z,21.90
2023-05-20T16:20:31.205Z,21.84
2023-05-20T16:22:58.421Z,21.84
2023-05-20T16:25:25.782Z,21.81
2023-05-20T16:27:53.186Z,21.86
2023-05-20T16:30:20.521Z,21.84
2023-05-20T16:32:47.824Z,21.84
2023-05-20T16:35:16.558Z,21.83
2023-05-20T16:37:44.603Z,21.78
2023-05-20T16:40:12.478Z,21.92
2023-05-20T16:42:40.063Z,21.92
2023-05-20T16:45:08.290Z,21.88
2023-05-20T16:47:37.059Z,21.78
2023-05-20T16:50:05.314Z,21.57
2023-05-20T16:52:34.883Z,21.65
2023-05-20T16:55:04.074Z,21.57
2023-05-20T16:57:32.712Z,21.71
2023-05-20T17:00:00.245Z,21.75
2023-05-20T17:02:27.689Z,21.57
2023-05-20T17:04:55.129Z,21.71
2023-05-20T17:07:22.351Z,21.87
2023-05-20T17:09:49.711Z,21.68
2023-05-20T17:12:17.143Z,21.68
2023-05-20T17:14:44.553Z,21.69
2023-05-20T17:17:14.130Z,21.51
2023-05-20T17:19:41.518Z,21.30
2023-05-20T17:22:09.033Z,20.82
2023-05-20T17:24:36.627Z,20.70
2023-05-20T17:27:06.202Z,20.56
2023-05-20T17:29:33.620Z,20.33
2023-05-20T17:32:01.012Z,20.21
2023-05-20T17:34:28.605Z,19.67
2023-05-20T17:36:57.318Z,19.66
2023-05-20T17:39:24.740Z,19.54
2023-05-20T17:41:52.388Z,19.55
2023-05-20T17:44:19.774Z,19.30
2023-05-20T17:46:47.168Z,19.19
2023-05-20T17:49:14.629Z,19.13
2023-05-20T17:51:42.495Z,19.30
2023-05-20T17:54:10.041Z,19.38
2023-05-20T17:56:37.441Z,19.10
2023-05-20T17:59:04.928Z,19.14
2023-05-20T18:01:32.404Z,18.90
2023-05-20T18:04:03.970Z,18.64
2023-05-20T18:06:34.592Z,18.47
2023-05-20T18:09:04.792Z,18.38
2023-05-20T18:11:33.780Z,18.31
2023-05-20T18:14:02.858Z,18.39
2023-05-20T18:16:31.258Z,18.24
2023-05-20T18:18:58.830Z,18.07
2023-05-20T18:21:26.612Z,18.05
2023-05-20T18:23:54.036Z,17.97
2023-05-20T18:26:21.832Z,17.82
2023-05-20T18:28:50.086Z,17.80
2023-05-20T18:31:17.552Z,17.74
2023-05-20T18:33:44.962Z,17.66
2023-05-20T18:36:13.154Z,17.68
2023-05-20T18:38:41.857Z,17.63
2023-05-20T18:41:09.624Z,17.63
2023-05-20T18:43:36.952Z,17.56
2023-05-20T18:46:04.609Z,17.54
2023-05-20T18:48:32.100Z,17.40
2023-05-20T18:50:59.396Z,17.22
2023-05-20T18:53:26.858Z,17.24
2023-05-20T18:55:54.235Z,17.12
2023-05-20T18:58:22.149Z,16.97
2023-05-20T19:00:49.563Z,16.85
2023-05-20T19:03:17.165Z,16.75
2023-05-20T19:05:44.596Z,16.67
2023-05-20T19:08:11.868Z,16.68
2023-05-20T19:10:39.267Z,16.63
2023-05-20T19:13:06.662Z,16.51
2023-05-20T19:15:34.520Z,16.59
2023-05-20T19:18:02.095Z,16.68
2023-05-20T19:20:29.588Z,16.72
2023-05-20T19:22:56.889Z,16.67
2023-05-20T19:25:24.135Z,16.66
2023-05-20T19:27:51.673Z,16.67
2023-05-20T19:30:18.904Z,16.56
2023-05-20T19:32:46.766Z,16.58
2023-05-20T19:35:14.577Z,16.55
2023-05-20T19:37:42.101Z,16.62
2023-05-20T19:40:11.256Z,16.62
2023-05-20T19:42:38.766Z,16.47
2023-05-20T19:45:07.327Z,16.35
2023-05-20T19:47:34.878Z,16.23
2023-05-20T19:50:02.426Z,16.15
2023-05-20T19:52:31.081Z,16.14
2023-05-20T19:54:58.723Z,16.04
2023-05-20T19:57:26.401Z,16.08
2023-05-20T19:59:54.014Z,16.00
2023-05-20T20:02:21.337Z,15.96
2023-05-20T20:04:50.381Z,16.03
2023-05-20T20:07:18.266Z,16.06
2023-05-20T20:09:46.989Z,16.07
2023-05-20T20:12:14.374Z,16.13
2023-05-20T20:14:41.844Z,16.03
2023-05-20T20:17:13.602Z,15.92
2023-05-20T20:19:42.371Z,15.86
2023-05-20T20:22:10.007Z,15.88
2023-05-20T20:24:37.505Z,15.89
2023-05-20T20:27:06.081Z,15.87
2023-05-20T20:29:33.476Z,15.75
2023-05-20T20:32:00.848Z,15.72
2023-05-20T20:34:28.614Z,15.69
2023-05-20T20:36:56.009Z,15.77
2023-05-20T20:39:25.253Z,15.72
2023-05-20T20:41:52.888Z,15.74
2023-05-20T20:44:22.920Z,15.87
2023-05-20T20:46:52.864Z,15.89
2023-05-20T20:49:21.219Z,15.81
2023-05-20T20:51:50.312Z,15.86
2023-05-20T20:54:17.837Z,15.75
2023-05-20T20:56:47.238Z,15.69
2023-05-20T20:59:16.062Z,15.62
2023-05-20T21:01:44.947Z,15.53
2023-05-20T21:04:14.079Z,15.50
2023-05-20T21:06:47.735Z,15.46
2023-05-20T21:09:15.876Z,15.39
2023-05-20T21:11:45.373Z,15.32
2023-05-20T21:14:13.527Z,15.25
2023-05-20T21:16:42.330Z,15.29
2023-05-20T21:19:09.840Z,15.33
2023-05-20T21:21:37.435Z,15.24
2023-05-20T21:24:05.018Z,15.21
2023-05-20T21:26:32.356Z,15.02
2023-05-20T21:28:59.872Z,15.10
2023-05-20T21:31:27.270Z,15.21
2023-05-20T21:33:54.586Z,15.25
2023-05-20T21:36:22.452Z,15.25
2023-05-20T21:38:49.792Z,15.34
2023-05-20T21:41:17.079Z,15.53
2023-05-20T21:43:44.406Z,15.51
2023-05-20T21:46:11.827Z,15.63
2023-05-20T21:48:39.257Z,15.60
2023-05-20T21:51:06.653Z,15.58
2023-05-20T21:53:33.918Z,15.62
2023-05-20T21:56:01.360Z,15.67
2023-05-20T21:58:28.863Z,15.64
2023-05-20T22:00:56.235Z,15.72
2023-05-20T22:03:24.590Z,15.67
2023-05-20T22:05:52.793Z,15.57
2023-05-20T22:08:20.279Z,15.45
2023-05-20T22:10:48.483Z,15.45
2023-05-20T22:13:15.900Z,15.46
2023-05-20T22:15:43.303Z,15.54
2023-05-20T22:18:12.575Z,15.56
2023-05-20T22:20:40.089Z,15.63
2023-05-20T22:23:07.449Z,15.62
2023-05-20T22:25:36.591Z,15.54
2023-05-20T22:28:07.170Z,15.52
2023-05-20T22:30:35.268Z,15.75
2023-05-20T22:33:02.701Z,15.83
2023-05-20T22:35:30.108Z,15.85
2023-05-20T22:37:57.608Z,15.89
2023-05-20T22:40:24.942Z,15.97
2023-05-20T22:42:52.690Z,15.82
2023-05-20T22:45:19.995Z,15.80
2023-05-20T22:47:47.526Z,15.77
2023-05-20T22:50:15.174Z,15.76
2023-05-20T22:52:42.955Z,15.73
2023-05-20T22:55:11.739Z,15.74
2023-05-20T22:57:39.268Z,15.67
2023-05-20T23:00:08.034Z,15.56
2023-05-20T23:02:35.530Z,15.60
2023-05-20T23:05:04.241Z,15.59
2023-05-20T23:07:32.109Z,15.58
2023-05-20T23:09:59.423Z,15.58
2023-05-20T23:12:26.808Z,15.63
2023-05-20T23:14:54.206Z,15.62
2023-05-20T23:17:21.522Z,15.63
2023-05-20T23:19:48.761Z,15.77
2023-05-20T23:22:16.558Z,15.74
2023-05-20T23:24:43.960Z,15.78
2023-05-20T23:27:11.234Z,15.74
2023-05-20T23:29:38.597Z,15.75
2023-05-20T23:32:06.209Z,15.63
2023-05-20T23:34:34.055Z,15.72
2023-05-20T23:37:01.447Z,15.58
2023-05-20T23:39:28.829Z,15.54
2023-05-20T23:41:56.206Z,15.50
2023-05-20T23:44:23.735Z,15.52
2023-05-20T23:46:51.145Z,15.57
2023-05-20T23:49:18.721Z,15.65
2023-05-20T23:51:46.029Z,15.63
2023-05-20T23:54:16.413Z,15.51
2023-05-20T23:56:44.050Z,15.64
2023-05-20T23:59:11.478Z,15.64
